Fish Lake Valley, Nevada Weather observations

Data are for 10 minute period ending at time listed.
 Day   Time    Ave.   Ave.  Ave.  Vector   Max.   Stn.    Total    Solar   Ave.  
  of    of     Air    Rel.  Wind   Wind    Wind   Baro.  Precip.   Rad.    Soil  
Year   Day     Temp.  Hum.  Speed  Dir.    Gust   Pres.                    Temp. 
2015   (PST)    F      %     mph   deg.    mph     mb.     in.     W/m2     F    
--------------------------------------------------------------------------------- 
 241    3:50   66.0    40    8.0   174     11.4   851.6    0.00       4    77.0  
 241    4:00   66.3    38    8.8   174     11.0   851.6    0.00       4    77.0  
 241    4:10   64.7    42    7.1   177      8.5   851.6    0.00       4    76.9  
 241    4:20   63.4    44    5.0   157      7.9   851.7    0.00       4    76.8  
 241    4:30   61.4    50    2.3    27      5.4   851.8    0.00       4    76.8  
 241    4:40   63.8    43    2.9    43      5.1   851.9    0.00       4    76.7  
 241    4:50   64.4    42    1.2    42      3.9   851.9    0.00       4    76.6  
 241    5:00   62.4    46    0.9   320      2.7   852.0    0.00       4    76.6  
 241    5:10   60.3    50    2.8   252      4.8   852.2    0.00       7    76.5  
 241    5:20   59.1    51    3.6   261      5.8   852.3    0.00       8    76.4  
 241    5:30   58.7    52    3.5   251      5.0   852.4    0.00      14    76.4  
 241    5:40   58.8    52    2.1   255      3.1   852.4    0.00      33    76.3  
 241    5:50   56.4    59    0.9    40      2.9   852.5    0.00      53    76.2  
 241    6:00   56.1    61    1.2   155      4.4   852.6    0.00      83    76.2  
 241    6:10   56.9    60    1.4   199      5.0   852.5    0.00     105    76.1  
 241    6:20   55.7    65    1.5   152      4.6   852.7    0.00     105    76.0  
 241    6:30   57.1    58    1.4   309      5.3   852.8    0.00     162    76.0  
 241    6:40   58.9    57    2.3   233      4.0   852.9    0.00     176    75.9  
 241    6:50   59.6    60    1.3   155      4.2   853.0    0.00     244    75.8  
 241    7:00   61.6    58    0.7    94      2.2   853.1    0.00     289    75.8  
 241    7:10   63.0    56    1.4   122      3.5   853.1    0.00     285    75.7  
 241    7:20   63.7    58    2.8   122      4.4   853.0    0.00     349    75.6  
 241    7:30   64.2    58    2.5   132      3.8   853.0    0.00     472    75.6  
 241    7:40   67.1    48    2.9   117      4.6   852.9    0.00     719    75.5  

Return to Fish Lake Valley, Nevada graphs page.


Western Regional Climate Center,wrcc@dri.edu